Accueil
METAR-TAF:

METAR-TAF

Aéroports :

Bückeburg, Allemagne

latitude: 52-17N, longitude: 009-05E, altitude: 70 m

Observation

Le bulletin a été fait il y a 53 minutes, à 11:20 UTC
Vent 8 kt de nord
Température 23°C
Humidité 44%
Pression 1018 hPa
Visibilité 10 km ou plus
Nuages épars à une hauteur de 5000 ft

METAR: ETHB 181120Z 36008KT 9999 SCT050 23/10 Q1018 BLU+BLU+

Heure: 14:13 (12:13 UTC)

Prévision

Le bulletin a été fait il y a 2 heures et 11 minutes, à 10:02 UTC
Prévision valable du 18 à 11 UTC au 18 à 20 UTC
Vent 12 kt de nord/nord-ouest avec des rafales jusqu'à 22 kt
Visibilité 10 km ou plus
Nuages épars à une hauteur de 5000 ft

TAF: ETHB 181002Z 1811/1820 33012G22KT 9999 NSW SCT050

Observations et prévisions météorologiques de plus de 4000 aéroports (messages METAR et TAF).

Les stations disponibles sont représentées par des disques jaunes et rouges sur la carte.

Passer la souris dessus pour voir le nom de la station.

Cliquer dessus pour voir les observations et prévisions météorologiques.

Pour changer de carte: cliquez sur les boutons verts avec une croix noire pour zoomer, sur le bouton vert avec un tiret pour effectuer un zoom arrière, ou sur les flèches vertes pour les cartes adjacentes.


METAR-TAF: